createdAt,value
2022-11-30T00:00:37.655Z,99848.66
2022-11-30T00:03:05.097Z,99840.56
2022-11-30T00:05:31.719Z,99841.63
2022-11-30T00:08:01.414Z,99833.50
2022-11-30T00:10:28.059Z,99825.63
2022-11-30T00:12:54.629Z,99836.94
2022-11-30T00:15:21.706Z,99838.00
2022-11-30T00:17:48.370Z,99834.47
2022-11-30T00:20:16.436Z,99828.50
2022-11-30T00:22:42.973Z,99836.38
2022-11-30T00:25:09.586Z,99834.16
2022-11-30T00:27:36.338Z,99835.53
2022-11-30T00:30:02.732Z,99841.50
2022-11-30T00:32:29.625Z,99838.84
2022-11-30T00:34:56.025Z,99839.25
2022-11-30T00:37:22.907Z,99838.31
2022-11-30T00:39:49.390Z,99827.66
2022-11-30T00:42:16.108Z,99833.09
2022-11-30T00:44:42.636Z,99841.19
2022-11-30T00:47:09.201Z,99827.66
2022-11-30T00:49:35.697Z,99827.63
2022-11-30T00:52:02.169Z,99827.34
2022-11-30T00:54:28.611Z,99825.31
2022-11-30T00:56:55.062Z,99831.59
2022-11-30T00:59:22.670Z,99826.47
2022-11-30T01:01:49.112Z,99822.75
2022-11-30T01:04:15.536Z,99822.44
2022-11-30T01:06:41.949Z,99822.22
2022-11-30T01:09:09.099Z,99823.06
2022-11-30T01:11:35.448Z,99824.34
2022-11-30T01:14:02.320Z,99826.69
2022-11-30T01:16:32.127Z,99827.09
2022-11-30T01:18:59.498Z,99824.66
2022-11-30T01:21:28.408Z,99826.03
2022-11-30T01:23:55.433Z,99829.47
2022-11-30T01:26:23.461Z,99822.41
2022-11-30T01:28:55.214Z,99828.16
2022-11-30T01:31:24.523Z,99832.34
2022-11-30T01:33:53.633Z,99823.78
2022-11-30T01:36:23.074Z,99825.19
2022-11-30T01:38:51.733Z,99822.31
2022-11-30T01:41:29.407Z,99822.81
2022-11-30T01:43:58.521Z,99825.81
2022-11-30T01:46:34.091Z,99826.97
2022-11-30T01:52:34.914Z,99823.47
2022-11-30T01:55:18.755Z,99826.56
2022-11-30T01:57:50.449Z,99827.50
2022-11-30T02:00:17.788Z,99826.56
2022-11-30T02:02:53.200Z,99829.25
2022-11-30T02:05:21.061Z,99839.47
2022-11-30T02:07:48.310Z,99839.47
2022-11-30T02:10:23.325Z,99842.03
2022-11-30T02:13:20.653Z,99841.28
2022-11-30T02:16:21.583Z,99842.97
2022-11-30T02:19:11.607Z,99835.22
2022-11-30T02:21:56.968Z,99833.94
2022-11-30T02:24:41.862Z,99837.63
2022-11-30T02:27:50.492Z,99835.22
2022-11-30T02:30:21.367Z,99838.91
2022-11-30T02:33:03.784Z,99835.22
2022-11-30T02:35:34.923Z,99845.00
2022-11-30T02:38:03.639Z,99837.09
2022-11-30T02:40:30.173Z,99834.22
2022-11-30T02:43:00.218Z,99826.66
2022-11-30T02:45:37.526Z,99832.84
2022-11-30T02:48:13.938Z,99838.28
2022-11-30T02:50:48.599Z,99840.41
2022-11-30T02:53:15.066Z,99842.66
2022-11-30T02:55:41.703Z,99848.00
2022-11-30T02:58:08.188Z,99848.84
2022-11-30T03:00:34.780Z,99848.94
2022-11-30T03:03:01.370Z,99849.03
2022-11-30T03:05:27.983Z,99845.34
2022-11-30T03:07:54.465Z,99852.56
2022-11-30T03:10:21.489Z,99849.78
2022-11-30T03:12:47.888Z,99843.81
2022-11-30T03:15:14.649Z,99841.78
2022-11-30T03:17:41.056Z,99843.59
2022-11-30T03:20:08.352Z,99844.56
2022-11-30T03:22:34.820Z,99848.19
2022-11-30T03:25:01.358Z,99855.00
2022-11-30T03:27:27.720Z,99849.78
2022-11-30T03:29:54.434Z,99847.13
2022-11-30T03:32:20.805Z,99850.75
2022-11-30T03:34:47.512Z,99842.75
2022-11-30T03:37:14.189Z,99857.78
2022-11-30T03:39:41.093Z,99845.44
2022-11-30T03:42:07.580Z,99849.28
2022-11-30T03:44:35.206Z,99854.06
2022-11-30T03:47:01.589Z,99853.09
2022-11-30T03:49:28.094Z,99854.16
2022-11-30T03:51:55.650Z,99852.16
2022-11-30T03:54:22.273Z,99857.38
2022-11-30T03:56:48.813Z,99843.94
2022-11-30T03:59:15.256Z,99842.22
2022-11-30T04:01:41.809Z,99842.56
2022-11-30T04:04:08.387Z,99842.56
2022-11-30T04:06:34.829Z,99848.84
2022-11-30T04:09:01.362Z,99847.56
2022-11-30T04:11:27.707Z,99843.06
2022-11-30T04:13:54.262Z,99839.22
2022-11-30T04:16:20.751Z,99844.56
2022-11-30T04:18:47.314Z,99845.72
2022-11-30T04:21:13.675Z,99844.78
2022-11-30T04:23:40.599Z,99842.66
2022-11-30T04:26:10.655Z,99848.19
2022-11-30T04:28:37.298Z,99849.03
2022-11-30T04:31:04.124Z,99847.75
2022-11-30T04:33:30.902Z,99850.00
2022-11-30T04:36:06.217Z,99851.50
2022-11-30T04:38:33.361Z,99854.28
2022-11-30T04:41:00.213Z,99845.53
2022-11-30T04:43:26.759Z,99850.50
2022-11-30T04:45:53.218Z,99842.13
2022-11-30T04:48:19.603Z,99845.72
2022-11-30T04:50:46.265Z,99845.44
2022-11-30T04:53:12.673Z,99843.81
2022-11-30T04:55:39.424Z,99844.25
2022-11-30T04:58:06.627Z,99848.41
2022-11-30T05:00:34.416Z,99844.97
2022-11-30T05:03:00.941Z,99850.75
2022-11-30T05:05:27.669Z,99850.97
2022-11-30T05:07:59.195Z,99852.44
2022-11-30T05:10:29.402Z,99863.06
2022-11-30T05:12:56.870Z,99857.72
2022-11-30T05:15:23.448Z,99854.81
2022-11-30T05:17:49.899Z,99852.69
2022-11-30T05:20:16.696Z,99858.22
2022-11-30T05:22:43.120Z,99863.63
2022-11-30T05:25:10.150Z,99867.25
2022-11-30T05:27:37.360Z,99867.53
2022-11-30T05:30:05.181Z,99876.78
2022-11-30T05:32:31.794Z,99869.72
2022-11-30T05:34:58.807Z,99866.09
2022-11-30T05:37:25.497Z,99868.22
2022-11-30T05:39:51.984Z,99866.59
2022-11-30T05:42:18.399Z,99868.13
2022-11-30T05:44:45.442Z,99870.78
2022-11-30T05:47:12.337Z,99860.78
2022-11-30T05:49:38.996Z,99862.47
2022-11-30T05:52:05.507Z,99860.53
2022-11-30T05:54:33.607Z,99869.53
2022-11-30T05:57:00.117Z,99857.13
2022-11-30T05:59:26.509Z,99865.88
2022-11-30T06:01:53.608Z,99870.47
2022-11-30T06:04:21.692Z,99865.78
2022-11-30T06:06:49.379Z,99865.13
2022-11-30T06:09:15.864Z,99869.63
2022-11-30T06:11:42.351Z,99874.41
2022-11-30T06:14:08.913Z,99885.09
2022-11-30T06:16:39.637Z,99884.53
2022-11-30T06:19:06.532Z,99880.19
2022-11-30T06:21:33.255Z,99882.94
2022-11-30T06:23:59.698Z,99886.34
2022-11-30T06:26:26.237Z,99893.50
2022-11-30T06:28:52.667Z,99889.75
2022-11-30T06:31:19.170Z,99891.38
2022-11-30T06:33:45.649Z,99893.63
2022-11-30T06:36:12.382Z,99899.94
2022-11-30T06:38:38.807Z,99891.50
2022-11-30T06:41:12.094Z,99900.88
2022-11-30T06:43:39.554Z,99901.84
2022-11-30T06:46:07.494Z,99893.22
2022-11-30T06:48:35.413Z,99903.88
2022-11-30T06:51:04.538Z,99894.50
2022-11-30T06:53:30.905Z,99896.28
2022-11-30T06:55:57.430Z,99898.53
2022-11-30T06:58:23.853Z,99904.72
2022-11-30T07:00:50.382Z,99903.53
2022-11-30T07:03:16.860Z,99902.16
2022-11-30T07:05:45.273Z,99896.81
2022-11-30T07:08:16.210Z,99904.63
2022-11-30T07:10:44.913Z,99915.38
2022-11-30T07:13:13.007Z,99911.75
2022-11-30T07:15:43.016Z,99909.06
2022-11-30T07:18:09.896Z,99917.06
2022-11-30T07:20:37.378Z,99908.31
2022-11-30T07:23:22.927Z,99911.53
2022-11-30T07:26:08.061Z,99909.72
2022-11-30T07:28:36.319Z,99910.69
2022-11-30T07:31:23.094Z,99911.75
2022-11-30T07:33:50.527Z,99908.78
2022-11-30T07:36:18.751Z,99913.91
2022-11-30T07:38:45.796Z,99916.28
2022-11-30T07:41:12.737Z,99915.41
2022-11-30T07:43:39.970Z,99910.94
2022-11-30T07:46:07.249Z,99917.53
2022-11-30T07:48:35.100Z,99917.41
2022-11-30T07:51:03.996Z,99920.72
2022-11-30T07:53:31.343Z,99927.34
2022-11-30T07:56:10.881Z,99923.19
2022-11-30T07:58:38.274Z,99933.97
2022-11-30T08:01:10.128Z,99926.72
2022-11-30T08:03:37.675Z,99926.50
2022-11-30T08:06:07.287Z,99932.38
2022-11-30T08:08:36.566Z,99932.59
2022-11-30T08:11:05.208Z,99939.34
2022-11-30T08:13:32.065Z,99936.88
2022-11-30T08:16:02.980Z,99940.19
2022-11-30T08:18:29.477Z,99945.13
2022-11-30T08:20:57.779Z,99933.69
2022-11-30T08:23:24.226Z,99934.56
2022-11-30T08:25:50.825Z,99935.59
2022-11-30T08:28:17.249Z,99935.94
2022-11-30T08:30:44.886Z,99941.06
2022-11-30T08:33:11.412Z,99944.47
2022-11-30T08:35:37.949Z,99942.75
2022-11-30T08:38:04.359Z,99944.72
2022-11-30T08:40:30.989Z,99944.38
2022-11-30T08:42:58.868Z,99940.19
2022-11-30T08:45:26.042Z,99947.16
2022-11-30T08:47:54.862Z,99947.91
2022-11-30T08:50:21.381Z,99945.44
2022-11-30T08:52:47.765Z,99949.81
2022-11-30T08:55:16.199Z,99950.66
2022-11-30T08:57:42.621Z,99955.59
2022-11-30T09:00:09.973Z,99953.03
2022-11-30T09:02:37.041Z,99955.59
2022-11-30T09:05:03.821Z,99959.84
2022-11-30T09:07:30.259Z,99960.59
2022-11-30T09:09:56.793Z,99960.84
2022-11-30T09:12:23.290Z,99966.72
2022-11-30T09:14:57.321Z,99964.78
2022-11-30T09:17:24.600Z,99970.91
2022-11-30T09:19:51.167Z,99968.19
2022-11-30T09:22:18.254Z,99978.78
2022-11-30T09:24:45.441Z,99974.28
2022-11-30T09:27:12.321Z,99972.16
2022-11-30T09:29:38.932Z,99968.19
2022-11-30T09:32:05.646Z,99960.50
2022-11-30T09:34:32.517Z,99965.81
2022-11-30T09:36:58.923Z,99965.75
2022-11-30T09:39:25.552Z,99967.91
2022-11-30T09:42:35.955Z,99976.78
2022-11-30T09:45:14.740Z,99973.22
2022-11-30T09:48:05.851Z,99967.88
2022-11-30T09:50:38.834Z,99968.06
2022-11-30T09:53:12.577Z,99970.00
2022-11-30T09:55:42.676Z,99970.75
2022-11-30T09:58:35.933Z,99970.16
2022-11-30T10:01:17.086Z,99975.22
2022-11-30T10:03:43.621Z,99975.06
2022-11-30T10:06:46.080Z,99973.22
2022-11-30T10:09:34.354Z,99967.69
2022-11-30T10:12:19.440Z,99974.69
2022-11-30T10:14:54.811Z,99969.03
2022-11-30T10:17:32.973Z,99965.75
2022-11-30T10:20:18.697Z,99958.59
2022-11-30T10:22:57.390Z,99959.34
2022-11-30T10:25:45.397Z,99963.44
2022-11-30T10:28:46.580Z,99959.06
2022-11-30T10:31:14.827Z,99965.66
2022-11-30T10:33:51.641Z,99971.19
2022-11-30T10:36:42.624Z,99972.03
2022-11-30T10:39:27.637Z,99966.59
2022-11-30T10:42:00.469Z,99973.94
2022-11-30T10:44:40.007Z,99963.19
2022-11-30T10:47:28.882Z,99969.34
2022-11-30T10:49:55.490Z,99967.53
2022-11-30T10:52:32.309Z,99963.72
2022-11-30T10:55:04.594Z,99960.91
2022-11-30T10:57:33.548Z,99954.25
2022-11-30T11:00:06.448Z,99967.34
2022-11-30T11:02:37.943Z,99964.47
2022-11-30T11:05:24.052Z,99960.91
2022-11-30T11:08:24.469Z,99957.22
2022-11-30T11:10:54.148Z,99951.31
2022-11-30T11:13:43.104Z,99949.31
2022-11-30T11:16:12.166Z,99951.69
2022-11-30T11:18:54.637Z,99953.78
2022-11-30T11:21:23.354Z,99947.59
2022-11-30T11:23:55.765Z,99951.69
2022-11-30T11:26:29.148Z,99950.69
2022-11-30T11:28:59.551Z,99961.78
2022-11-30T11:31:40.853Z,99951.78
2022-11-30T11:34:24.900Z,99953.59
2022-11-30T11:37:16.801Z,99953.59
2022-11-30T11:39:43.461Z,99955.09
2022-11-30T11:42:22.390Z,99956.38
2022-11-30T11:44:54.664Z,99962.75
2022-11-30T11:47:26.947Z,99957.22
2022-11-30T11:50:27.203Z,99963.09
2022-11-30T11:53:25.039Z,99955.50
2022-11-30T11:55:56.648Z,99967.41
2022-11-30T11:58:40.613Z,99960.38
2022-11-30T12:01:38.536Z,99964.75
2022-11-30T12:04:38.182Z,99966.38
2022-11-30T12:07:17.892Z,99964.03
2022-11-30T12:10:21.857Z,99966.94
2022-11-30T12:12:55.093Z,99961.28
2022-11-30T12:15:36.994Z,99962.78
2022-11-30T12:18:23.746Z,99966.41
2022-11-30T12:20:55.715Z,99967.91
2022-11-30T12:23:42.299Z,99972.03
2022-11-30T12:26:33.687Z,99976.81
2022-11-30T12:29:19.255Z,99971.38
2022-11-30T12:31:48.424Z,99974.69
2022-11-30T12:34:48.848Z,99965.22
2022-11-30T12:37:22.153Z,99966.16
2022-11-30T12:40:11.862Z,99975.69
2022-11-30T12:42:53.299Z,99973.22
2022-11-30T12:45:28.846Z,99968.63
2022-11-30T12:48:38.607Z,99966.56
2022-11-30T12:51:05.530Z,99965.59
2022-11-30T12:53:55.928Z,99962.94
2022-11-30T12:56:54.622Z,99970.75
2022-11-30T12:59:30.395Z,99971.03
2022-11-30T13:02:06.054Z,99965.06
2022-11-30T13:04:46.194Z,99964.31
2022-11-30T13:07:26.216Z,99971.91
2022-11-30T13:10:02.363Z,99975.53
2022-11-30T13:12:37.117Z,99970.59
2022-11-30T13:15:15.735Z,99965.94
2022-11-30T13:17:43.768Z,99970.59
2022-11-30T13:20:22.389Z,99968.69
2022-11-30T13:23:07.864Z,99976.97
2022-11-30T13:28:42.015Z,99984.22
2022-11-30T13:31:17.776Z,99975.56
2022-11-30T13:33:46.688Z,99973.47
2022-11-30T13:36:32.846Z,99972.28
2022-11-30T13:39:14.836Z,99979.53
2022-11-30T13:41:43.606Z,99972.28
2022-11-30T13:44:32.739Z,99975.94
2022-11-30T13:47:01.802Z,99980.84
2022-11-30T13:49:35.579Z,99972.94
2022-11-30T13:54:54.546Z,99982.97
2022-11-30T13:57:30.183Z,99979.25
2022-11-30T13:59:57.443Z,99980.09
2022-11-30T14:02:33.446Z,99975.53
2022-11-30T14:05:18.375Z,99988.84
2022-11-30T14:07:50.876Z,99983.72
2022-11-30T14:10:29.257Z,99989.69
2022-11-30T14:13:04.058Z,99979.34
2022-11-30T14:15:50.642Z,99989.59
2022-11-30T14:18:22.877Z,99989.81
2022-11-30T14:20:52.234Z,99989.41
2022-11-30T14:23:27.442Z,99984.69
2022-11-30T14:25:57.444Z,99986.38
2022-11-30T14:28:36.100Z,99989.81
2022-11-30T14:31:05.381Z,99994.50
2022-11-30T14:33:41.564Z,99993.97
2022-11-30T14:36:09.430Z,99998.56
2022-11-30T14:38:41.281Z,100003.25
2022-11-30T14:41:23.140Z,99998.94
2022-11-30T14:44:07.011Z,99998.22
2022-11-30T14:46:35.061Z,99997.47
2022-11-30T14:49:22.768Z,100014.28
2022-11-30T14:52:04.226Z,100005.34
2022-11-30T14:54:47.262Z,100008.59
2022-11-30T14:57:42.118Z,100013.34
2022-11-30T15:00:16.755Z,100010.69
2022-11-30T15:02:44.527Z,100022.38
2022-11-30T15:05:17.361Z,100016.22
2022-11-30T15:07:45.647Z,100009.53
2022-11-30T15:10:29.843Z,100001.81
2022-11-30T15:12:58.005Z,100011.44
2022-11-30T15:15:27.708Z,100010.78
2022-11-30T15:18:06.316Z,100002.97
2022-11-30T15:20:41.705Z,100000.31
2022-11-30T15:23:13.436Z,100010.22
2022-11-30T15:25:46.823Z,100007.16
2022-11-30T15:28:22.692Z,100009.63
2022-11-30T15:30:56.152Z,100005.66
2022-11-30T15:33:26.970Z,100011.53
2022-11-30T15:36:18.775Z,100011.44
2022-11-30T15:38:47.251Z,100023.25
2022-11-30T15:41:22.381Z,100018.97
2022-11-30T15:43:53.222Z,100021.63
2022-11-30T15:46:33.358Z,100022.56
2022-11-30T15:49:17.682Z,100020.69
2022-11-30T15:51:46.763Z,100019.06
2022-11-30T15:54:13.866Z,100026.22
2022-11-30T15:56:40.303Z,100022.38
2022-11-30T15:59:14.233Z,100030.47
2022-11-30T16:02:02.610Z,100025.06
2022-11-30T16:04:58.256Z,100020.75
2022-11-30T16:07:28.420Z,100030.38
2022-11-30T16:10:14.567Z,100032.94
2022-11-30T16:12:42.819Z,100027.81
2022-11-30T16:15:27.225Z,100031.75
2022-11-30T16:17:57.028Z,100029.81
2022-11-30T16:20:24.626Z,100021.81
2022-11-30T16:22:52.271Z,100026.22
2022-11-30T16:25:24.340Z,100025.16
2022-11-30T16:27:51.687Z,100031.34
2022-11-30T16:30:21.793Z,100024.22
2022-11-30T16:32:49.134Z,100032.59
2022-11-30T16:35:18.319Z,100024.97
2022-11-30T16:37:44.766Z,100030.78
2022-11-30T16:40:12.258Z,100039.03
2022-11-30T16:42:38.694Z,100034.88
2022-11-30T16:45:05.736Z,100044.13
2022-11-30T16:47:32.541Z,100042.97
2022-11-30T16:49:59.128Z,100039.53
2022-11-30T16:52:25.967Z,100042.00
2022-11-30T16:54:52.395Z,100035.34
2022-11-30T16:57:19.003Z,100042.09
2022-11-30T16:59:45.971Z,100044.66
2022-11-30T17:02:20.014Z,100043.91
2022-11-30T17:04:46.969Z,100048.38
2022-11-30T17:07:13.634Z,100055.31
2022-11-30T17:09:40.072Z,100056.38
2022-11-30T17:12:06.775Z,100058.28
2022-11-30T17:14:33.257Z,100061.72
2022-11-30T17:17:02.728Z,100063.63
2022-11-30T17:19:29.202Z,100058.38
2022-11-30T17:21:55.856Z,100059.16
2022-11-30T17:24:22.485Z,100065.03
2022-11-30T17:26:49.154Z,100059.81
2022-11-30T17:29:15.621Z,100068.72
2022-11-30T17:31:42.197Z,100069.22
2022-11-30T17:34:08.723Z,100060.28
2022-11-30T17:36:35.366Z,100067.50
2022-11-30T17:39:08.224Z,100062.56
2022-11-30T17:41:35.084Z,100068.06
2022-11-30T17:44:02.539Z,100065.81
2022-11-30T17:46:29.136Z,100072.84
2022-11-30T17:48:55.980Z,100078.25
2022-11-30T17:51:22.669Z,100079.47
2022-11-30T17:53:49.264Z,100083.31
2022-11-30T17:56:16.996Z,100076.38
2022-11-30T17:58:44.929Z,100076.06
2022-11-30T18:01:17.601Z,100083.22
2022-11-30T18:03:44.859Z,100077.69
2022-11-30T18:06:11.617Z,100089.78
2022-11-30T18:08:38.952Z,100091.88
2022-11-30T18:11:17.537Z,100085.69
2022-11-30T18:13:44.160Z,100089.88
2022-11-30T18:16:16.579Z,100091.78
2022-11-30T18:18:47.699Z,100089.13
2022-11-30T18:21:17.151Z,100088.25
2022-11-30T18:23:43.884Z,100092.16
2022-11-30T18:26:15.923Z,100099.88
2022-11-30T18:28:43.441Z,100101.97
2022-11-30T18:31:10.009Z,100103.97
2022-11-30T18:33:37.806Z,100102.53
2022-11-30T18:36:08.841Z,100100.81
2022-11-30T18:38:38.239Z,100094.91
2022-11-30T18:41:06.270Z,100103.88
2022-11-30T18:43:33.767Z,100104.34
2022-11-30T18:46:09.023Z,100108.81
2022-11-30T18:48:37.074Z,100104.25
2022-11-30T18:51:15.192Z,100108.13
2022-11-30T18:53:42.055Z,100109.97
2022-11-30T18:56:14.495Z,100110.91
2022-11-30T18:58:42.114Z,100107.47
2022-11-30T19:01:11.816Z,100104.72
2022-11-30T19:03:38.643Z,100108.78
2022-11-30T19:06:06.377Z,100113.47
2022-11-30T19:08:33.446Z,100109.56
2022-11-30T19:11:07.961Z,100109.75
2022-11-30T19:13:35.131Z,100112.53
2022-11-30T19:16:07.724Z,100116.81
2022-11-30T19:18:34.695Z,100103.38
2022-11-30T19:21:01.904Z,100111.28
2022-11-30T19:23:28.374Z,100105.00
2022-11-30T19:26:00.321Z,100117.38
2022-11-30T19:28:29.352Z,100113.47
2022-11-30T19:30:56.633Z,100118.78
2022-11-30T19:33:23.365Z,100113.69
2022-11-30T19:35:49.853Z,100117.94
2022-11-30T19:38:16.496Z,100119.84
2022-11-30T19:40:42.957Z,100114.13
2022-11-30T19:43:09.524Z,100119.19
2022-11-30T19:45:35.874Z,100121.09
2022-11-30T19:48:02.486Z,100125.38
2022-11-30T19:50:28.833Z,100123.47
2022-11-30T19:52:55.443Z,100124.22
2022-11-30T19:55:22.463Z,100130.34
2022-11-30T19:57:49.034Z,100131.09
2022-11-30T20:00:16.170Z,100133.75
2022-11-30T20:02:42.884Z,100127.94
2022-11-30T20:05:09.454Z,100127.75
2022-11-30T20:07:36.475Z,100129.53
2022-11-30T20:10:03.055Z,100137.66
2022-11-30T20:12:29.804Z,100136.59
2022-11-30T20:14:56.191Z,100134.78
2022-11-30T20:17:22.795Z,100146.50
2022-11-30T20:19:50.630Z,100137.75
2022-11-30T20:22:17.067Z,100141.94
2022-11-30T20:24:43.797Z,100134.44
2022-11-30T20:27:10.246Z,100139.06
2022-11-30T20:29:37.852Z,100135.94
2022-11-30T20:32:04.417Z,100129.94
2022-11-30T20:34:34.619Z,100134.50
2022-11-30T20:37:02.375Z,100138.13
2022-11-30T20:39:29.078Z,100136.97
2022-11-30T20:41:55.475Z,100138.78
2022-11-30T20:44:23.064Z,100138.13
2022-11-30T20:46:49.507Z,100134.59
2022-11-30T20:49:18.280Z,100132.59
2022-11-30T20:51:45.161Z,100131.84
2022-11-30T20:54:12.448Z,100133.84
2022-11-30T20:56:39.577Z,100134.41
2022-11-30T20:59:14.609Z,100130.22
2022-11-30T21:01:43.428Z,100129.94
2022-11-30T21:04:10.585Z,100137.63
2022-11-30T21:06:37.555Z,100136.78
2022-11-30T21:09:04.817Z,100133.19
2022-11-30T21:11:31.213Z,100144.03
2022-11-30T21:13:58.674Z,100144.03
2022-11-30T21:16:28.876Z,100141.63
2022-11-30T21:18:58.636Z,100146.09
2022-11-30T21:21:31.300Z,100135.81
2022-11-30T21:24:03.117Z,100143.63
2022-11-30T21:26:35.670Z,100136.66
2022-11-30T21:29:09.678Z,100142.47
2022-11-30T21:31:36.134Z,100138.78
2022-11-30T21:34:03.122Z,100139.22
2022-11-30T21:36:29.740Z,100141.13
2022-11-30T21:39:04.863Z,100141.13
2022-11-30T21:41:32.893Z,100137.72
2022-11-30T21:43:59.458Z,100136.00
2022-11-30T21:46:25.986Z,100140.13
2022-11-30T21:48:52.529Z,100147.63
2022-11-30T21:51:27.475Z,100140.59
2022-11-30T21:53:56.474Z,100141.44
2022-11-30T21:56:25.541Z,100145.72
2022-11-30T21:58:52.046Z,100153.91
2022-11-30T22:01:21.883Z,100150.75
2022-11-30T22:03:48.378Z,100147.31
2022-11-30T22:06:17.474Z,100145.19
2022-11-30T22:08:44.911Z,100143.53
2022-11-30T22:11:12.483Z,100144.56
2022-11-30T22:13:39.450Z,100145.22
2022-11-30T22:16:14.428Z,100149.88
2022-11-30T22:18:41.423Z,100145.78
2022-11-30T22:21:16.759Z,100150.09
2022-11-30T22:23:46.078Z,100149.72
2022-11-30T22:26:12.468Z,100149.03
2022-11-30T22:28:40.236Z,100147.13
2022-11-30T22:31:09.913Z,100149.50
2022-11-30T22:33:40.016Z,100152.94
2022-11-30T22:36:08.434Z,100147.69
2022-11-30T22:38:34.980Z,100145.13
2022-11-30T22:41:13.437Z,100156.63
2022-11-30T22:43:41.103Z,100148.63
2022-11-30T22:46:09.537Z,100149.72
2022-11-30T22:48:37.348Z,100150.38
2022-11-30T22:51:04.002Z,100145.72
2022-11-30T22:53:30.696Z,100144.78
2022-11-30T22:56:05.367Z,100148.38
2022-11-30T22:58:32.420Z,100150.28
2022-11-30T23:01:06.757Z,100148.84
2022-11-30T23:03:33.236Z,100148.38
2022-11-30T23:05:59.758Z,100143.41
2022-11-30T23:08:26.173Z,100143.41
2022-11-30T23:10:57.411Z,100141.97
2022-11-30T23:13:24.822Z,100136.97
2022-11-30T23:15:54.028Z,100149.88
2022-11-30T23:18:20.592Z,100143.41
2022-11-30T23:20:47.048Z,100153.53
2022-11-30T23:23:13.442Z,100148.94
2022-11-30T23:25:40.118Z,100149.88
2022-11-30T23:28:06.671Z,100145.06
2022-11-30T23:30:33.342Z,100149.03
2022-11-30T23:32:59.741Z,100141.13
2022-11-30T23:35:26.580Z,100135.06
2022-11-30T23:37:53.080Z,100145.88
2022-11-30T23:40:19.911Z,100144.28
2022-11-30T23:42:46.348Z,100142.28
2022-11-30T23:45:13.103Z,100143.94
2022-11-30T23:47:39.510Z,100142.28
2022-11-30T23:50:06.726Z,100136.78
2022-11-30T23:52:33.180Z,100139.03
2022-11-30T23:54:59.652Z,100136.00
2022-11-30T23:57:26.217Z,100130.75
2022-11-30T23:59:52.603Z,100143.41
